Cleveland, OH (44142)

5:18 PM EDT on August 31, 2015 (GMT -0400)
Brook Park | | Change Station
CLOSE
Current Station
Personal Weather Station
Location: Brook Park, OH
Elevation: 832 ft
Nearby Weather Stations

Elev 832 ft 41.39 °N, 81.79 °W | Updated 9 seconds ago

Scattered Clouds
Scattered Clouds
86.8 °F
Feels Like 93 °F
N
0.2
Wind Variable Wind from North
Gusts 1.1 mph

Today
High -- | Low -- °F
--% Chance of Precip.
Yesterday
High -- | Low -- °F
Precip. -- in
6:52 AM 8:02 PM
Waning Gibbous, 93% visible
Pressure 30.06 in
Visibility 10.0 miles
Clouds Scattered Clouds 3900 ft
Heat Index 93 °F
Dew Point 72 °F
Humidity 61%
Rainfall in
Snow Depth Not available.
UV 1.8 out of 12
Pollen 11.20 out of 12
Air Quality Not available.
Flu Activity Not available.
METAR KCLE 312051Z 35007KT 10SM SCT039 28/20 A3008 RMK AO2 SLP179 T02780200 56011
Pressure 30.06 in
Visibility 10.0 miles
Clouds Scattered Clouds 3900 ft
Heat Index 93 °F
Dew Point 72 °F
Humidity 61%
Rainfall in
Snow Depth Not available.
UV 1.8 out of 12
Pollen 11.20 out of 12
Air Quality Not available.
Flu Activity Not available.
METAR KCLE 312051Z 35007KT 10SM SCT039 28/20 A3008 RMK AO2 SLP179 T02780200 56011

10-Day Weather Forecast

×

Almanac

Astronomy

Aug. 31, 2015 Rise Set
Actual Time
Civil Twilight
Nautical Twilight
Astronomical Twilight
Moon
Length of Visible Light
Length of Day
Tomorrow will be .
, % of the Moon is Illuminated

Today's Extremes

State Highs State Lows

Community

WunderPhotos

Upload Photos

1,851,371 photos uploaded!

WunderBlogs® & News

Nearby

Air Quality

  Air Quality AQ Index Pollutant
Not available.

Snow Depth

Station Depth Elevation

Earthquake Activity

City Distance Mag. Time & Date
Minimum magnitude displayed is 2.5.

Coastal Water Temperatures

Place Temperature

Stations

Nearby Weather Stations

Station Location Temp. Windchill Dew Point Humidity Wind Precip. Elev Updated Type